sensor_id;sensor_type;location;lat;lon;timestamp;temperature;humidity
59146;DHT22;44928;53.074;6.646;2022-12-29T00:01:30;10.40;99.90
59146;DHT22;44928;53.074;6.646;2022-12-29T00:03:56;10.40;99.90
59146;DHT22;44928;53.074;6.646;2022-12-29T00:06:22;10.40;99.90
59146;DHT22;44928;53.074;6.646;2022-12-29T00:08:48;10.40;99.90
59146;DHT22;44928;53.074;6.646;2022-12-29T00:11:18;10.50;99.90
59146;DHT22;44928;53.074;6.646;2022-12-29T00:13:44;10.40;99.90
59146;DHT22;44928;53.074;6.646;2022-12-29T00:16:29;10.40;99.90
59146;DHT22;44928;53.074;6.646;2022-12-29T00:18:56;10.40;99.90
59146;DHT22;44928;53.074;6.646;2022-12-29T00:21:23;10.40;99.90
59146;DHT22;44928;53.074;6.646;2022-12-29T00:24:15;10.40;99.90
59146;DHT22;44928;53.074;6.646;2022-12-29T00:27:13;10.40;99.90
59146;DHT22;44928;53.074;6.646;2022-12-29T00:29:57;10.40;99.90
59146;DHT22;44928;53.074;6.646;2022-12-29T00:32:41;10.40;99.90
59146;DHT22;44928;53.074;6.646;2022-12-29T00:35:34;10.40;99.90
59146;DHT22;44928;53.074;6.646;2022-12-29T00:38:03;10.50;99.90
59146;DHT22;44928;53.074;6.646;2022-12-29T00:40:48;10.40;99.90
59146;DHT22;44928;53.074;6.646;2022-12-29T00:43:32;10.50;99.90
59146;DHT22;44928;53.074;6.646;2022-12-29T00:46:17;10.50;99.90
59146;DHT22;44928;53.074;6.646;2022-12-29T00:48:42;10.50;99.90
59146;DHT22;44928;53.074;6.646;2022-12-29T00:51:27;10.60;99.90
59146;DHT22;44928;53.074;6.646;2022-12-29T00:53:53;10.60;99.90
59146;DHT22;44928;53.074;6.646;2022-12-29T00:56:18;10.60;99.90
59146;DHT22;44928;53.074;6.646;2022-12-29T00:58:44;10.60;99.90
59146;DHT22;44928;53.074;6.646;2022-12-29T01:01:10;10.60;99.90
59146;DHT22;44928;53.074;6.646;2022-12-29T01:03:37;10.60;99.90
59146;DHT22;44928;53.074;6.646;2022-12-29T01:06:05;10.60;99.90
59146;DHT22;44928;53.074;6.646;2022-12-29T01:08:31;10.60;99.90
59146;DHT22;44928;53.074;6.646;2022-12-29T01:11:00;10.60;99.90
59146;DHT22;44928;53.074;6.646;2022-12-29T01:13:26;10.60;99.90
59146;DHT22;44928;53.074;6.646;2022-12-29T01:15:53;10.60;99.90
59146;DHT22;44928;53.074;6.646;2022-12-29T01:18:19;10.60;99.90
59146;DHT22;44928;53.074;6.646;2022-12-29T01:20:45;10.60;99.90
59146;DHT22;44928;53.074;6.646;2022-12-29T01:23:11;10.60;99.90
59146;DHT22;44928;53.074;6.646;2022-12-29T01:25:36;10.70;99.90
59146;DHT22;44928;53.074;6.646;2022-12-29T01:28:02;10.70;99.90
59146;DHT22;44928;53.074;6.646;2022-12-29T01:30:28;10.70;99.90
59146;DHT22;44928;53.074;6.646;2022-12-29T01:32:54;10.70;99.90
59146;DHT22;44928;53.074;6.646;2022-12-29T01:35:20;10.70;99.90
59146;DHT22;44928;53.074;6.646;2022-12-29T01:37:45;10.70;99.90
59146;DHT22;44928;53.074;6.646;2022-12-29T01:40:12;10.70;99.90
59146;DHT22;44928;53.074;6.646;2022-12-29T01:42:37;10.70;99.90
59146;DHT22;44928;53.074;6.646;2022-12-29T01:45:09;10.70;99.90
59146;DHT22;44928;53.074;6.646;2022-12-29T01:47:50;10.70;99.90
59146;DHT22;44928;53.074;6.646;2022-12-29T01:50:29;10.70;99.90
59146;DHT22;44928;53.074;6.646;2022-12-29T01:53:29;10.70;99.90
59146;DHT22;44928;53.074;6.646;2022-12-29T01:55:51;10.70;99.90
59146;DHT22;44928;53.074;6.646;2022-12-29T01:58:20;10.70;99.90
59146;DHT22;44928;53.074;6.646;2022-12-29T02:00:47;10.70;99.90
59146;DHT22;44928;53.074;6.646;2022-12-29T02:03:15;10.70;99.90
59146;DHT22;44928;53.074;6.646;2022-12-29T02:06:35;10.70;99.90
59146;DHT22;44928;53.074;6.646;2022-12-29T02:08:41;10.80;99.90
59146;DHT22;44928;53.074;6.646;2022-12-29T02:11:08;10.80;99.90
59146;DHT22;44928;53.074;6.646;2022-12-29T02:13:34;10.80;99.90
59146;DHT22;44928;53.074;6.646;2022-12-29T02:16:04;10.80;99.90
59146;DHT22;44928;53.074;6.646;2022-12-29T02:26:34;10.90;99.90
59146;DHT22;44928;53.074;6.646;2022-12-29T02:35:20;10.90;99.90
59146;DHT22;44928;53.074;6.646;2022-12-29T02:41:04;10.90;99.90
59146;DHT22;44928;53.074;6.646;2022-12-29T02:46:41;10.80;99.90
59146;DHT22;44928;53.074;6.646;2022-12-29T02:49:38;10.80;99.90
59146;DHT22;44928;53.074;6.646;2022-12-29T02:52:12;10.70;99.90
59146;DHT22;44928;53.074;6.646;2022-12-29T02:54:40;10.70;99.90
59146;DHT22;44928;53.074;6.646;2022-12-29T02:57:28;10.70;99.90
59146;DHT22;44928;53.074;6.646;2022-12-29T02:59:56;10.70;99.90
59146;DHT22;44928;53.074;6.646;2022-12-29T03:02:35;10.70;99.90
59146;DHT22;44928;53.074;6.646;2022-12-29T03:05:19;10.80;99.90
59146;DHT22;44928;53.074;6.646;2022-12-29T03:16:08;10.90;99.90
59146;DHT22;44928;53.074;6.646;2022-12-29T03:19:16;10.90;99.90
59146;DHT22;44928;53.074;6.646;2022-12-29T03:21:51;10.90;99.90
59146;DHT22;44928;53.074;6.646;2022-12-29T03:24:42;10.90;99.90
59146;DHT22;44928;53.074;6.646;2022-12-29T03:27:11;10.90;99.90
59146;DHT22;44928;53.074;6.646;2022-12-29T03:29:42;10.90;99.90
59146;DHT22;44928;53.074;6.646;2022-12-29T03:32:12;10.90;99.90
59146;DHT22;44928;53.074;6.646;2022-12-29T03:34:39;11.00;99.90
59146;DHT22;44928;53.074;6.646;2022-12-29T03:37:13;11.00;99.90
59146;DHT22;44928;53.074;6.646;2022-12-29T03:39:40;11.00;99.90
59146;DHT22;44928;53.074;6.646;2022-12-29T03:42:12;10.90;99.90
59146;DHT22;44928;53.074;6.646;2022-12-29T03:44:41;10.90;99.90
59146;DHT22;44928;53.074;6.646;2022-12-29T03:47:09;10.90;99.90
59146;DHT22;44928;53.074;6.646;2022-12-29T03:49:35;10.90;99.90
59146;DHT22;44928;53.074;6.646;2022-12-29T03:52:01;10.90;99.90
59146;DHT22;44928;53.074;6.646;2022-12-29T03:54:27;10.90;99.90
59146;DHT22;44928;53.074;6.646;2022-12-29T03:56:53;10.90;99.90
59146;DHT22;44928;53.074;6.646;2022-12-29T03:59:18;10.80;99.90
59146;DHT22;44928;53.074;6.646;2022-12-29T04:01:44;10.80;99.90
59146;DHT22;44928;53.074;6.646;2022-12-29T04:04:10;10.80;99.90
59146;DHT22;44928;53.074;6.646;2022-12-29T04:06:36;10.80;99.90
59146;DHT22;44928;53.074;6.646;2022-12-29T04:09:01;10.70;99.90
59146;DHT22;44928;53.074;6.646;2022-12-29T04:11:27;10.70;99.90
59146;DHT22;44928;53.074;6.646;2022-12-29T04:13:53;10.80;99.90
59146;DHT22;44928;53.074;6.646;2022-12-29T04:16:19;10.80;99.90
59146;DHT22;44928;53.074;6.646;2022-12-29T04:18:44;10.80;99.90
59146;DHT22;44928;53.074;6.646;2022-12-29T04:21:10;10.80;99.90
59146;DHT22;44928;53.074;6.646;2022-12-29T04:23:38;10.80;99.90
59146;DHT22;44928;53.074;6.646;2022-12-29T04:26:05;10.80;99.90
59146;DHT22;44928;53.074;6.646;2022-12-29T04:28:35;10.90;99.90
59146;DHT22;44928;53.074;6.646;2022-12-29T04:31:01;10.80;99.90
59146;DHT22;44928;53.074;6.646;2022-12-29T04:33:26;10.80;99.90
59146;DHT22;44928;53.074;6.646;2022-12-29T04:35:53;10.80;99.90
59146;DHT22;44928;53.074;6.646;2022-12-29T04:38:20;10.80;99.90
59146;DHT22;44928;53.074;6.646;2022-12-29T04:40:46;10.80;99.90
59146;DHT22;44928;53.074;6.646;2022-12-29T04:43:13;10.80;99.90
59146;DHT22;44928;53.074;6.646;2022-12-29T04:45:43;10.80;99.90
59146;DHT22;44928;53.074;6.646;2022-12-29T04:48:09;10.80;99.90
59146;DHT22;44928;53.074;6.646;2022-12-29T04:50:35;10.80;99.90
59146;DHT22;44928;53.074;6.646;2022-12-29T04:53:01;10.80;99.90
59146;DHT22;44928;53.074;6.646;2022-12-29T04:55:26;10.70;99.90
59146;DHT22;44928;53.074;6.646;2022-12-29T04:57:52;10.70;99.90
59146;DHT22;44928;53.074;6.646;2022-12-29T05:00:18;10.70;99.90
59146;DHT22;44928;53.074;6.646;2022-12-29T05:02:45;10.60;99.90
59146;DHT22;44928;53.074;6.646;2022-12-29T05:05:11;10.60;99.90
59146;DHT22;44928;53.074;6.646;2022-12-29T05:07:37;10.50;99.90
59146;DHT22;44928;53.074;6.646;2022-12-29T05:10:03;10.50;99.90
59146;DHT22;44928;53.074;6.646;2022-12-29T05:12:34;10.40;99.90
59146;DHT22;44928;53.074;6.646;2022-12-29T05:15:00;10.40;99.90
59146;DHT22;44928;53.074;6.646;2022-12-29T05:17:26;10.30;99.90
59146;DHT22;44928;53.074;6.646;2022-12-29T05:19:51;10.30;99.90
59146;DHT22;44928;53.074;6.646;2022-12-29T05:22:18;10.30;99.90
59146;DHT22;44928;53.074;6.646;2022-12-29T05:24:43;10.30;99.90
59146;DHT22;44928;53.074;6.646;2022-12-29T05:27:09;10.30;99.90
59146;DHT22;44928;53.074;6.646;2022-12-29T05:29:35;10.30;99.90
59146;DHT22;44928;53.074;6.646;2022-12-29T05:32:01;10.30;99.90
59146;DHT22;44928;53.074;6.646;2022-12-29T05:34:26;10.20;99.90
59146;DHT22;44928;53.074;6.646;2022-12-29T05:36:52;10.20;99.90
59146;DHT22;44928;53.074;6.646;2022-12-29T05:39:18;10.20;99.90
59146;DHT22;44928;53.074;6.646;2022-12-29T05:41:44;10.20;99.90
59146;DHT22;44928;53.074;6.646;2022-12-29T05:44:12;10.20;99.90
59146;DHT22;44928;53.074;6.646;2022-12-29T05:46:38;10.20;99.90
59146;DHT22;44928;53.074;6.646;2022-12-29T05:49:05;10.20;99.90
59146;DHT22;44928;53.074;6.646;2022-12-29T05:51:31;10.20;99.90
59146;DHT22;44928;53.074;6.646;2022-12-29T05:53:56;10.20;99.90
59146;DHT22;44928;53.074;6.646;2022-12-29T05:56:23;10.20;99.90
59146;DHT22;44928;53.074;6.646;2022-12-29T05:58:49;10.20;99.90
59146;DHT22;44928;53.074;6.646;2022-12-29T06:01:15;10.20;99.90
59146;DHT22;44928;53.074;6.646;2022-12-29T06:03:40;10.20;99.90
59146;DHT22;44928;53.074;6.646;2022-12-29T06:06:06;10.10;99.90
59146;DHT22;44928;53.074;6.646;2022-12-29T06:08:32;10.20;99.90
59146;DHT22;44928;53.074;6.646;2022-12-29T06:10:58;10.20;99.90
59146;DHT22;44928;53.074;6.646;2022-12-29T06:13:24;10.10;99.90
59146;DHT22;44928;53.074;6.646;2022-12-29T06:15:50;10.10;99.90
59146;DHT22;44928;53.074;6.646;2022-12-29T06:18:16;10.20;99.90
59146;DHT22;44928;53.074;6.646;2022-12-29T06:20:42;10.20;99.90
59146;DHT22;44928;53.074;6.646;2022-12-29T06:23:08;10.10;99.90
59146;DHT22;44928;53.074;6.646;2022-12-29T06:25:34;10.10;99.90
59146;DHT22;44928;53.074;6.646;2022-12-29T06:28:03;10.20;99.90
59146;DHT22;44928;53.074;6.646;2022-12-29T06:30:29;10.10;99.90
59146;DHT22;44928;53.074;6.646;2022-12-29T06:32:54;10.10;99.90
59146;DHT22;44928;53.074;6.646;2022-12-29T06:35:20;10.20;99.90
59146;DHT22;44928;53.074;6.646;2022-12-29T06:37:48;10.20;99.90
59146;DHT22;44928;53.074;6.646;2022-12-29T06:40:14;10.20;99.90
59146;DHT22;44928;53.074;6.646;2022-12-29T06:42:40;10.20;99.90
59146;DHT22;44928;53.074;6.646;2022-12-29T06:45:06;10.10;99.90
59146;DHT22;44928;53.074;6.646;2022-12-29T06:47:33;10.20;99.90
59146;DHT22;44928;53.074;6.646;2022-12-29T06:49:59;10.10;99.90
59146;DHT22;44928;53.074;6.646;2022-12-29T06:52:25;10.10;99.90
59146;DHT22;44928;53.074;6.646;2022-12-29T06:54:51;10.10;99.90
59146;DHT22;44928;53.074;6.646;2022-12-29T06:57:17;10.00;99.90
59146;DHT22;44928;53.074;6.646;2022-12-29T06:59:43;10.00;99.90
59146;DHT22;44928;53.074;6.646;2022-12-29T07:02:10;10.00;99.90
59146;DHT22;44928;53.074;6.646;2022-12-29T07:04:36;10.00;99.90
59146;DHT22;44928;53.074;6.646;2022-12-29T07:07:02;10.00;99.90
59146;DHT22;44928;53.074;6.646;2022-12-29T07:09:28;9.90;99.90
59146;DHT22;44928;53.074;6.646;2022-12-29T07:11:54;9.90;99.90
59146;DHT22;44928;53.074;6.646;2022-12-29T07:14:20;9.90;99.90
59146;DHT22;44928;53.074;6.646;2022-12-29T07:16:53;9.90;99.90
59146;DHT22;44928;53.074;6.646;2022-12-29T07:19:18;9.90;99.90
59146;DHT22;44928;53.074;6.646;2022-12-29T07:21:44;9.90;99.90
59146;DHT22;44928;53.074;6.646;2022-12-29T07:24:10;9.90;99.90
59146;DHT22;44928;53.074;6.646;2022-12-29T07:26:36;10.00;99.90
59146;DHT22;44928;53.074;6.646;2022-12-29T07:29:03;10.00;99.90
59146;DHT22;44928;53.074;6.646;2022-12-29T07:31:29;10.10;99.90
59146;DHT22;44928;53.074;6.646;2022-12-29T07:33:54;10.10;99.90
59146;DHT22;44928;53.074;6.646;2022-12-29T07:36:20;10.10;99.90
59146;DHT22;44928;53.074;6.646;2022-12-29T07:38:46;10.10;99.90
59146;DHT22;44928;53.074;6.646;2022-12-29T07:41:12;10.10;99.90
59146;DHT22;44928;53.074;6.646;2022-12-29T07:43:38;10.10;99.90
59146;DHT22;44928;53.074;6.646;2022-12-29T07:46:04;10.10;99.90
59146;DHT22;44928;53.074;6.646;2022-12-29T07:48:29;10.10;99.90
59146;DHT22;44928;53.074;6.646;2022-12-29T07:50:55;10.10;99.90
59146;DHT22;44928;53.074;6.646;2022-12-29T07:53:21;10.10;99.90
59146;DHT22;44928;53.074;6.646;2022-12-29T07:55:47;10.10;99.90
59146;DHT22;44928;53.074;6.646;2022-12-29T07:58:13;10.20;99.90
59146;DHT22;44928;53.074;6.646;2022-12-29T08:00:39;10.10;99.90
59146;DHT22;44928;53.074;6.646;2022-12-29T08:03:05;10.10;99.90
59146;DHT22;44928;53.074;6.646;2022-12-29T08:05:32;10.10;99.90
59146;DHT22;44928;53.074;6.646;2022-12-29T08:07:58;10.20;99.90
59146;DHT22;44928;53.074;6.646;2022-12-29T08:10:24;10.10;99.90
59146;DHT22;44928;53.074;6.646;2022-12-29T08:12:50;10.10;99.90
59146;DHT22;44928;53.074;6.646;2022-12-29T08:15:16;10.10;99.90
59146;DHT22;44928;53.074;6.646;2022-12-29T08:17:42;10.10;99.90
59146;DHT22;44928;53.074;6.646;2022-12-29T08:20:08;10.10;99.90
59146;DHT22;44928;53.074;6.646;2022-12-29T08:22:34;10.10;99.90
59146;DHT22;44928;53.074;6.646;2022-12-29T08:25:00;10.10;99.90
59146;DHT22;44928;53.074;6.646;2022-12-29T08:27:26;10.10;99.90
59146;DHT22;44928;53.074;6.646;2022-12-29T08:29:52;10.10;99.90
59146;DHT22;44928;53.074;6.646;2022-12-29T08:32:18;10.10;99.90
59146;DHT22;44928;53.074;6.646;2022-12-29T08:34:43;10.10;99.90
59146;DHT22;44928;53.074;6.646;2022-12-29T08:37:09;10.10;99.90
59146;DHT22;44928;53.074;6.646;2022-12-29T08:39:35;10.10;99.90
59146;DHT22;44928;53.074;6.646;2022-12-29T08:42:01;10.10;99.90
59146;DHT22;44928;53.074;6.646;2022-12-29T08:44:27;10.10;99.90
59146;DHT22;44928;53.074;6.646;2022-12-29T08:46:52;10.10;99.90
59146;DHT22;44928;53.074;6.646;2022-12-29T08:49:18;10.10;99.90
59146;DHT22;44928;53.074;6.646;2022-12-29T08:51:44;10.10;99.90
59146;DHT22;44928;53.074;6.646;2022-12-29T08:54:10;10.10;99.90
59146;DHT22;44928;53.074;6.646;2022-12-29T08:56:35;10.10;99.90
59146;DHT22;44928;53.074;6.646;2022-12-29T08:59:01;10.10;99.90
59146;DHT22;44928;53.074;6.646;2022-12-29T09:01:27;10.10;99.90
59146;DHT22;44928;53.074;6.646;2022-12-29T09:03:54;10.10;99.90
59146;DHT22;44928;53.074;6.646;2022-12-29T09:06:20;10.10;99.90
59146;DHT22;44928;53.074;6.646;2022-12-29T09:08:46;10.10;99.90
59146;DHT22;44928;53.074;6.646;2022-12-29T09:11:15;10.10;99.90
59146;DHT22;44928;53.074;6.646;2022-12-29T09:13:42;10.10;99.90
59146;DHT22;44928;53.074;6.646;2022-12-29T09:16:08;10.00;99.90
59146;DHT22;44928;53.074;6.646;2022-12-29T09:18:34;10.10;99.90
59146;DHT22;44928;53.074;6.646;2022-12-29T09:21:01;10.00;99.90
59146;DHT22;44928;53.074;6.646;2022-12-29T09:23:28;10.00;99.90
59146;DHT22;44928;53.074;6.646;2022-12-29T09:25:54;9.90;99.90
59146;DHT22;44928;53.074;6.646;2022-12-29T09:28:21;9.90;99.90
59146;DHT22;44928;53.074;6.646;2022-12-29T09:30:57;9.80;99.90
59146;DHT22;44928;53.074;6.646;2022-12-29T09:33:23;9.80;99.90
59146;DHT22;44928;53.074;6.646;2022-12-29T09:35:57;9.70;99.90
59146;DHT22;44928;53.074;6.646;2022-12-29T09:38:24;9.70;99.90
59146;DHT22;44928;53.074;6.646;2022-12-29T09:40:53;9.70;99.90
59146;DHT22;44928;53.074;6.646;2022-12-29T09:43:50;9.60;99.90
59146;DHT22;44928;53.074;6.646;2022-12-29T09:46:31;9.60;99.90
59146;DHT22;44928;53.074;6.646;2022-12-29T09:51:26;9.70;99.90
59146;DHT22;44928;53.074;6.646;2022-12-29T09:53:56;9.70;99.90
59146;DHT22;44928;53.074;6.646;2022-12-29T09:56:24;9.80;99.90
59146;DHT22;44928;53.074;6.646;2022-12-29T09:59:09;9.70;99.90
59146;DHT22;44928;53.074;6.646;2022-12-29T10:01:43;9.80;99.90
59146;DHT22;44928;53.074;6.646;2022-12-29T10:04:10;9.80;99.90
59146;DHT22;44928;53.074;6.646;2022-12-29T10:06:53;9.70;99.90
59146;DHT22;44928;53.074;6.646;2022-12-29T10:12:27;9.60;99.90
59146;DHT22;44928;53.074;6.646;2022-12-29T10:15:12;9.60;99.90
59146;DHT22;44928;53.074;6.646;2022-12-29T10:25:12;9.50;99.90
59146;DHT22;44928;53.074;6.646;2022-12-29T10:27:41;9.50;99.90
59146;DHT22;44928;53.074;6.646;2022-12-29T10:30:12;9.40;99.90
59146;DHT22;44928;53.074;6.646;2022-12-29T10:32:43;9.40;99.90
59146;DHT22;44928;53.074;6.646;2022-12-29T10:35:17;9.40;99.90
59146;DHT22;44928;53.074;6.646;2022-12-29T10:40:42;9.30;99.90
59146;DHT22;44928;53.074;6.646;2022-12-29T10:43:38;9.20;99.90
59146;DHT22;44928;53.074;6.646;2022-12-29T10:46:10;9.20;99.90
59146;DHT22;44928;53.074;6.646;2022-12-29T10:48:37;9.20;99.90
59146;DHT22;44928;53.074;6.646;2022-12-29T10:51:05;9.20;99.90
59146;DHT22;44928;53.074;6.646;2022-12-29T10:53:45;9.20;99.90
59146;DHT22;44928;53.074;6.646;2022-12-29T10:56:34;9.30;99.90
59146;DHT22;44928;53.074;6.646;2022-12-29T10:59:22;9.30;99.90
59146;DHT22;44928;53.074;6.646;2022-12-29T11:07:16;9.20;99.90
59146;DHT22;44928;53.074;6.646;2022-12-29T11:09:43;9.20;99.90
59146;DHT22;44928;53.074;6.646;2022-12-29T11:12:27;9.20;99.90
59146;DHT22;44928;53.074;6.646;2022-12-29T11:15:19;9.20;99.90
59146;DHT22;44928;53.074;6.646;2022-12-29T11:17:50;9.20;99.90
59146;DHT22;44928;53.074;6.646;2022-12-29T11:20:36;9.20;99.90
59146;DHT22;44928;53.074;6.646;2022-12-29T11:28:37;9.30;99.90
59146;DHT22;44928;53.074;6.646;2022-12-29T11:31:05;9.30;99.90
59146;DHT22;44928;53.074;6.646;2022-12-29T11:33:34;9.30;99.90
59146;DHT22;44928;53.074;6.646;2022-12-29T11:36:16;9.30;99.90
59146;DHT22;44928;53.074;6.646;2022-12-29T11:38:46;9.30;99.90
59146;DHT22;44928;53.074;6.646;2022-12-29T11:41:22;9.40;99.90
59146;DHT22;44928;53.074;6.646;2022-12-29T11:43:49;9.40;99.90
59146;DHT22;44928;53.074;6.646;2022-12-29T11:46:22;9.40;99.90
59146;DHT22;44928;53.074;6.646;2022-12-29T11:48:48;9.40;99.90
59146;DHT22;44928;53.074;6.646;2022-12-29T11:51:23;9.40;99.90
59146;DHT22;44928;53.074;6.646;2022-12-29T11:53:54;9.50;99.90
59146;DHT22;44928;53.074;6.646;2022-12-29T11:56:33;9.60;99.90
59146;DHT22;44928;53.074;6.646;2022-12-29T12:01:58;9.80;99.90
59146;DHT22;44928;53.074;6.646;2022-12-29T12:04:32;9.80;99.90
59146;DHT22;44928;53.074;6.646;2022-12-29T12:09:58;10.00;99.90
59146;DHT22;44928;53.074;6.646;2022-12-29T12:12:35;9.90;99.90
59146;DHT22;44928;53.074;6.646;2022-12-29T12:15:03;9.90;99.90
59146;DHT22;44928;53.074;6.646;2022-12-29T12:17:30;9.90;99.90
59146;DHT22;44928;53.074;6.646;2022-12-29T12:20:18;9.90;99.90
59146;DHT22;44928;53.074;6.646;2022-12-29T12:23:02;9.90;99.90
59146;DHT22;44928;53.074;6.646;2022-12-29T12:25:45;10.00;99.90
59146;DHT22;44928;53.074;6.646;2022-12-29T12:29:01;10.10;99.90
59146;DHT22;44928;53.074;6.646;2022-12-29T12:31:17;10.10;99.90
59146;DHT22;44928;53.074;6.646;2022-12-29T12:33:47;10.10;99.90
59146;DHT22;44928;53.074;6.646;2022-12-29T12:39:08;10.20;99.90
59146;DHT22;44928;53.074;6.646;2022-12-29T12:45:16;10.20;99.90
59146;DHT22;44928;53.074;6.646;2022-12-29T12:58:12;10.40;99.90
59146;DHT22;44928;53.074;6.646;2022-12-29T13:06:51;10.30;99.90
59146;DHT22;44928;53.074;6.646;2022-12-29T13:09:43;10.30;99.90
59146;DHT22;44928;53.074;6.646;2022-12-29T13:18:07;10.20;99.90
59146;DHT22;44928;53.074;6.646;2022-12-29T13:20:47;10.20;99.90
59146;DHT22;44928;53.074;6.646;2022-12-29T13:28:30;10.10;99.90
59146;DHT22;44928;53.074;6.646;2022-12-29T13:36:42;9.90;99.90
59146;DHT22;44928;53.074;6.646;2022-12-29T13:39:32;9.90;99.90
59146;DHT22;44928;53.074;6.646;2022-12-29T13:41:59;9.90;99.90
59146;DHT22;44928;53.074;6.646;2022-12-29T13:44:39;9.80;99.90
59146;DHT22;44928;53.074;6.646;2022-12-29T13:49:57;9.80;99.90
59146;DHT22;44928;53.074;6.646;2022-12-29T13:52:44;9.90;99.90
59146;DHT22;44928;53.074;6.646;2022-12-29T13:55:33;9.90;99.90
59146;DHT22;44928;53.074;6.646;2022-12-29T13:58:27;9.90;99.90
59146;DHT22;44928;53.074;6.646;2022-12-29T14:01:10;9.90;99.90
59146;DHT22;44928;53.074;6.646;2022-12-29T14:03:53;9.90;99.90
59146;DHT22;44928;53.074;6.646;2022-12-29T14:06:23;9.90;99.90
59146;DHT22;44928;53.074;6.646;2022-12-29T14:08:53;9.90;99.90
59146;DHT22;44928;53.074;6.646;2022-12-29T14:11:22;9.90;99.90
59146;DHT22;44928;53.074;6.646;2022-12-29T14:13:50;9.90;99.90
59146;DHT22;44928;53.074;6.646;2022-12-29T14:16:35;9.90;99.90
59146;DHT22;44928;53.074;6.646;2022-12-29T14:19:28;9.80;99.90
59146;DHT22;44928;53.074;6.646;2022-12-29T14:22:00;9.80;99.90
59146;DHT22;44928;53.074;6.646;2022-12-29T14:34:57;9.60;99.90
59146;DHT22;44928;53.074;6.646;2022-12-29T14:37:31;9.60;99.90
59146;DHT22;44928;53.074;6.646;2022-12-29T14:40:30;9.60;99.90
59146;DHT22;44928;53.074;6.646;2022-12-29T14:42:56;9.50;99.90
59146;DHT22;44928;53.074;6.646;2022-12-29T14:45:26;9.50;99.90
59146;DHT22;44928;53.074;6.646;2022-12-29T14:47:53;9.50;99.90
59146;DHT22;44928;53.074;6.646;2022-12-29T14:50:25;9.50;99.90
59146;DHT22;44928;53.074;6.646;2022-12-29T14:53:00;9.50;99.90
59146;DHT22;44928;53.074;6.646;2022-12-29T14:58:00;9.40;99.90
59146;DHT22;44928;53.074;6.646;2022-12-29T15:00:32;9.40;99.90
59146;DHT22;44928;53.074;6.646;2022-12-29T15:03:06;9.30;99.90
59146;DHT22;44928;53.074;6.646;2022-12-29T15:05:53;9.30;99.90
59146;DHT22;44928;53.074;6.646;2022-12-29T15:08:28;9.20;99.90
59146;DHT22;44928;53.074;6.646;2022-12-29T15:11:17;9.20;99.90
59146;DHT22;44928;53.074;6.646;2022-12-29T15:13:44;9.20;99.90
59146;DHT22;44928;53.074;6.646;2022-12-29T15:16:30;9.10;99.90
59146;DHT22;44928;53.074;6.646;2022-12-29T15:18:57;9.10;99.90
59146;DHT22;44928;53.074;6.646;2022-12-29T15:21:34;9.10;99.90
59146;DHT22;44928;53.074;6.646;2022-12-29T15:24:04;9.00;99.90
59146;DHT22;44928;53.074;6.646;2022-12-29T15:26:47;9.00;99.90
59146;DHT22;44928;53.074;6.646;2022-12-29T15:29:33;9.00;99.90
59146;DHT22;44928;53.074;6.646;2022-12-29T15:32:15;8.90;99.90
59146;DHT22;44928;53.074;6.646;2022-12-29T15:34:47;8.90;99.90
59146;DHT22;44928;53.074;6.646;2022-12-29T15:37:28;8.90;99.90
59146;DHT22;44928;53.074;6.646;2022-12-29T15:39:55;8.90;99.90
59146;DHT22;44928;53.074;6.646;2022-12-29T15:45:07;8.90;99.90
59146;DHT22;44928;53.074;6.646;2022-12-29T15:47:35;8.90;99.90
59146;DHT22;44928;53.074;6.646;2022-12-29T15:50:22;8.90;99.90
59146;DHT22;44928;53.074;6.646;2022-12-29T15:52:49;8.90;99.90
59146;DHT22;44928;53.074;6.646;2022-12-29T15:55:41;8.90;99.90
59146;DHT22;44928;53.074;6.646;2022-12-29T15:58:23;8.90;99.90
59146;DHT22;44928;53.074;6.646;2022-12-29T16:00:52;8.80;99.90
59146;DHT22;44928;53.074;6.646;2022-12-29T16:03:18;8.80;99.90
59146;DHT22;44928;53.074;6.646;2022-12-29T16:05:54;8.80;99.90
59146;DHT22;44928;53.074;6.646;2022-12-29T16:08:36;8.70;99.90
59146;DHT22;44928;53.074;6.646;2022-12-29T16:11:22;8.80;99.90
59146;DHT22;44928;53.074;6.646;2022-12-29T16:13:50;8.70;99.90
59146;DHT22;44928;53.074;6.646;2022-12-29T16:16:25;8.70;99.90
59146;DHT22;44928;53.074;6.646;2022-12-29T16:18:53;8.70;99.90
59146;DHT22;44928;53.074;6.646;2022-12-29T16:21:43;8.70;99.90
59146;DHT22;44928;53.074;6.646;2022-12-29T16:24:20;8.70;99.90
59146;DHT22;44928;53.074;6.646;2022-12-29T16:29:21;8.70;99.90
59146;DHT22;44928;53.074;6.646;2022-12-29T16:31:56;8.70;99.90
59146;DHT22;44928;53.074;6.646;2022-12-29T16:34:28;8.70;99.90
59146;DHT22;44928;53.074;6.646;2022-12-29T16:36:56;8.80;99.90
59146;DHT22;44928;53.074;6.646;2022-12-29T16:39:36;8.80;99.90
59146;DHT22;44928;53.074;6.646;2022-12-29T16:42:32;8.80;99.90
59146;DHT22;44928;53.074;6.646;2022-12-29T16:47:41;8.80;99.90
59146;DHT22;44928;53.074;6.646;2022-12-29T16:50:12;8.90;99.90
59146;DHT22;44928;53.074;6.646;2022-12-29T16:52:38;8.90;99.90
59146;DHT22;44928;53.074;6.646;2022-12-29T16:55:04;8.90;99.90
59146;DHT22;44928;53.074;6.646;2022-12-29T16:57:35;8.90;99.90
59146;DHT22;44928;53.074;6.646;2022-12-29T17:00:05;8.90;99.90
59146;DHT22;44928;53.074;6.646;2022-12-29T17:02:32;8.90;99.90
59146;DHT22;44928;53.074;6.646;2022-12-29T17:05:00;8.80;99.90
59146;DHT22;44928;53.074;6.646;2022-12-29T17:07:27;8.80;99.90
59146;DHT22;44928;53.074;6.646;2022-12-29T17:09:53;8.70;99.90
59146;DHT22;44928;53.074;6.646;2022-12-29T17:12:27;8.70;99.90
59146;DHT22;44928;53.074;6.646;2022-12-29T17:15:04;8.60;99.90
59146;DHT22;44928;53.074;6.646;2022-12-29T17:17:41;8.60;99.90
59146;DHT22;44928;53.074;6.646;2022-12-29T17:20:20;8.60;99.90
59146;DHT22;44928;53.074;6.646;2022-12-29T17:22:46;8.60;99.90
59146;DHT22;44928;53.074;6.646;2022-12-29T17:25:14;8.60;99.90
59146;DHT22;44928;53.074;6.646;2022-12-29T17:30:17;8.50;99.90
59146;DHT22;44928;53.074;6.646;2022-12-29T17:32:50;8.40;99.90
59146;DHT22;44928;53.074;6.646;2022-12-29T17:35:18;8.40;99.90
59146;DHT22;44928;53.074;6.646;2022-12-29T17:37:44;8.30;99.90
59146;DHT22;44928;53.074;6.646;2022-12-29T17:40:14;8.30;99.90
59146;DHT22;44928;53.074;6.646;2022-12-29T17:42:46;8.30;99.90
59146;DHT22;44928;53.074;6.646;2022-12-29T17:45:16;8.30;99.90
59146;DHT22;44928;53.074;6.646;2022-12-29T17:47:42;8.20;99.90
59146;DHT22;44928;53.074;6.646;2022-12-29T17:50:15;8.20;99.90
59146;DHT22;44928;53.074;6.646;2022-12-29T17:52:42;8.20;99.90
59146;DHT22;44928;53.074;6.646;2022-12-29T17:55:17;8.20;99.90
59146;DHT22;44928;53.074;6.646;2022-12-29T17:57:44;8.20;99.90
59146;DHT22;44928;53.074;6.646;2022-12-29T18:00:15;8.10;99.90
59146;DHT22;44928;53.074;6.646;2022-12-29T18:02:41;8.20;99.90
59146;DHT22;44928;53.074;6.646;2022-12-29T18:05:20;8.20;99.90
59146;DHT22;44928;53.074;6.646;2022-12-29T18:07:46;8.20;99.90
59146;DHT22;44928;53.074;6.646;2022-12-29T18:10:13;8.20;99.90